createdAt,value
2023-02-08T17:47:08.468Z,33.92
2023-02-08T17:49:36.185Z,38.10
2023-02-08T17:52:03.891Z,35.88
2023-02-08T17:54:31.545Z,30.98
2023-02-08T17:56:59.811Z,31.13
2023-02-08T17:59:27.535Z,31.75
2023-02-08T18:01:55.316Z,33.05
2023-02-08T18:04:24.401Z,33.88
2023-02-08T18:06:52.206Z,33.22
2023-02-08T18:09:19.984Z,36.50
2023-02-08T18:11:47.671Z,32.50
2023-02-08T18:14:15.420Z,29.97
2023-02-08T18:16:43.218Z,30.17
2023-02-08T18:19:10.913Z,31.60
2023-02-08T18:21:39.975Z,34.15
2023-02-08T18:24:07.927Z,40.40
2023-02-08T18:26:35.811Z,44.00
2023-02-08T18:29:04.457Z,45.42
2023-02-08T18:31:32.969Z,46.35
2023-02-08T18:34:01.524Z,45.78
2023-02-08T18:36:29.238Z,45.17
2023-02-08T18:38:58.388Z,46.70
2023-02-08T18:41:28.011Z,44.47
2023-02-08T18:43:57.122Z,43.03
2023-02-08T18:46:26.283Z,43.83
2023-02-08T18:48:54.828Z,41.60
2023-02-08T18:51:23.993Z,43.15
2023-02-08T18:53:53.714Z,45.45
2023-02-08T18:56:25.220Z,46.42
2023-02-08T18:58:53.085Z,48.73
2023-02-08T19:01:22.675Z,46.80
2023-02-08T19:03:51.751Z,44.42
2023-02-08T19:06:22.524Z,39.78
2023-02-08T19:08:51.600Z,39.10
2023-02-08T19:11:22.437Z,39.50
2023-02-08T19:13:50.368Z,39.50
2023-02-08T19:16:19.404Z,39.50
2023-02-08T19:18:48.132Z,39.70
2023-02-08T19:21:17.568Z,37.42
2023-02-08T19:23:46.700Z,35.60
2023-02-08T19:26:17.613Z,34.63
2023-02-08T19:28:46.742Z,32.70
2023-02-08T19:31:17.293Z,30.05
2023-02-08T19:33:46.837Z,27.98
2023-02-08T19:36:16.294Z,29.35
2023-02-08T19:38:44.231Z,31.80
2023-02-08T19:41:16.720Z,40.85
2023-02-08T19:43:45.957Z,41.53
2023-02-08T19:46:15.920Z,40.28
2023-02-08T19:48:43.985Z,38.65
2023-02-08T19:51:11.674Z,37.80
2023-02-08T19:53:39.400Z,38.40
2023-02-08T19:56:08.863Z,33.10
2023-02-08T19:58:37.311Z,31.92
2023-02-08T20:01:08.673Z,30.00
2023-02-08T20:03:36.416Z,28.20
2023-02-08T20:06:04.384Z,28.35
2023-02-08T20:08:32.764Z,28.37
2023-02-08T20:11:00.461Z,29.65
2023-02-08T20:13:28.558Z,28.23
2023-02-08T20:15:59.756Z,30.73
2023-02-08T20:18:28.984Z,31.70
2023-02-08T20:21:01.238Z,30.85
2023-02-08T20:23:29.158Z,28.50
2023-02-08T20:26:10.950Z,28.85
2023-02-08T20:28:39.781Z,32.97
2023-02-08T20:31:08.702Z,30.30
2023-02-08T20:33:38.067Z,30.95
2023-02-08T20:36:10.245Z,34.42
2023-02-08T20:38:38.555Z,33.38
2023-02-08T20:41:08.355Z,34.05
2023-02-08T20:43:36.336Z,35.05
2023-02-08T20:46:06.575Z,33.53
2023-02-08T20:48:34.445Z,32.25
2023-02-08T20:51:08.317Z,30.77
2023-02-08T20:53:36.259Z,30.17
2023-02-08T20:56:06.338Z,28.83
2023-02-08T20:58:34.278Z,26.23
2023-02-08T21:01:02.087Z,30.13
2023-02-08T21:03:29.949Z,28.55
2023-02-08T21:05:58.542Z,27.17
2023-02-08T21:08:27.594Z,24.45
2023-02-08T21:10:55.280Z,23.70
2023-02-08T21:13:26.071Z,23.30
2023-02-08T21:15:53.831Z,23.90
2023-02-08T21:18:21.549Z,25.33
2023-02-08T21:20:50.813Z,26.20
2023-02-08T21:23:18.538Z,28.50
2023-02-08T21:25:47.568Z,29.88
2023-02-08T21:28:15.603Z,34.43
2023-02-08T21:30:44.542Z,28.63
2023-02-08T21:33:12.474Z,28.00
2023-02-08T21:35:40.242Z,24.57
2023-02-08T21:38:07.954Z,25.58
2023-02-08T21:40:35.613Z,25.02
2023-02-08T21:43:04.830Z,21.98
2023-02-08T21:45:32.609Z,22.55
2023-02-08T21:48:00.249Z,22.48
2023-02-08T21:50:45.560Z,21.17
2023-02-08T21:53:31.214Z,20.45
2023-02-08T21:55:59.212Z,14.97
2023-02-08T21:58:28.295Z,16.30
2023-02-08T22:00:55.956Z,21.67
2023-02-08T22:03:23.746Z,22.88
2023-02-08T22:05:51.482Z,19.10
2023-02-08T22:08:19.188Z,13.52
2023-02-08T22:10:57.643Z,12.90
2023-02-08T22:13:25.942Z,12.07
2023-02-08T22:15:55.005Z,11.07
2023-02-08T22:18:22.750Z,14.73
2023-02-08T22:20:52.000Z,14.52
2023-02-08T22:23:19.731Z,13.30
2023-02-08T22:25:47.387Z,11.73
2023-02-08T22:28:15.145Z,13.02
2023-02-08T22:30:43.029Z,14.02
2023-02-08T22:33:12.290Z,11.35
2023-02-08T22:35:40.429Z,9.63
2023-02-08T22:38:08.201Z,9.10
2023-02-08T22:40:35.881Z,9.18
2023-02-08T22:43:03.558Z,9.00
2023-02-08T22:45:31.555Z,8.40
2023-02-08T22:47:59.327Z,9.13
2023-02-08T22:50:28.328Z,7.50
2023-02-08T22:52:56.086Z,10.00
2023-02-08T22:55:23.700Z,7.50
2023-02-08T22:57:51.379Z,8.37
2023-02-08T23:00:19.092Z,6.68
2023-02-08T23:02:47.068Z,7.70
2023-02-08T23:05:14.806Z,7.70
2023-02-08T23:07:44.149Z,6.88
2023-02-08T23:10:12.485Z,7.22
2023-02-08T23:12:40.470Z,7.45
2023-02-08T23:15:08.655Z,7.28
2023-02-08T23:17:37.565Z,6.40
2023-02-08T23:20:05.609Z,6.63
2023-02-08T23:22:33.326Z,6.95
2023-02-08T23:25:02.396Z,7.43
2023-02-08T23:27:30.068Z,6.57
2023-02-08T23:29:57.792Z,7.63
2023-02-08T23:32:25.466Z,6.88
